Time;durP1;ratioP1;P1;durP2;ratioP2;P2;SDS_P1;SDS_P2;PMS_P1;PMS_P2;Temp;Humidity;BMP_temperature;BMP_pressure;BME280_temperature;BME280_humidity;BME280_pressure;Samples;Min_cycle;Max_cycle;Signal;HPM_P1;HPM_P2
2022/01/14 00:00:15;;;;;;;16.05;8.93;;;;;;;4.33;61.66;101196.78;4363678;32;33933;-68
2022/01/14 00:02:42;;;;;;;17.90;8.88;;;;;;;4.86;60.22;101189.00;4363835;32;33601;-69
2022/01/14 00:05:10;;;;;;;17.17;8.82;;;;;;;4.25;61.61;101194.94;4363934;32;34102;-68
2022/01/14 00:07:37;;;;;;;18.58;9.02;;;;;;;3.73;63.22;101191.84;4363494;32;34089;-68
2022/01/14 00:10:07;;;;;;;0.73;0.73;;;;;;;4.09;62.12;101186.94;4363600;32;34867;-68
2022/01/14 00:12:40;;;;;;;17.92;9.02;;;;;;;4.44;60.91;101185.66;4363853;32;33833;-68
2022/01/14 00:15:24;;;;;;;18.15;8.82;;;;;;;3.97;61.93;101183.75;4363682;32;34651;-68
2022/01/14 00:17:53;;;;;;;15.80;8.33;;;;;;;4.13;61.30;101187.44;4363736;32;35096;-68
2022/01/14 00:20:21;;;;;;;17.50;8.82;;;;;;;4.26;60.88;101188.56;4363487;32;34062;-68
2022/01/14 00:22:49;;;;;;;15.75;8.25;;;;;;;4.25;60.44;101188.75;4363927;32;34327;-68
2022/01/14 00:33:33;;;;;;;16.42;8.75;;;;;;;4.40;60.86;101181.63;4362776;32;34394;-69
2022/01/14 00:36:01;;;;;;;17.62;7.90;;;;;;;3.83;62.72;101171.03;4363349;32;34090;-68
2022/01/14 00:38:28;;;;;;;19.08;8.45;;;;;;;3.93;62.69;101163.66;4363587;32;35167;-68
2022/01/14 00:40:55;;;;;;;17.02;8.13;;;;;;;3.60;64.25;101169.03;4363542;32;34822;-68
2022/01/14 00:43:23;;;;;;;18.55;9.32;;;;;;;3.88;63.40;101171.34;4363434;32;33326;-69
2022/01/14 00:45:51;;;;;;;19.55;8.48;;;;;;;3.91;63.21;101168.34;4359916;32;84570;-68
2022/01/14 00:48:20;;;;;;;15.10;7.32;;;;;;;3.86;63.23;101170.69;4363821;32;34240;-69
2022/01/14 00:50:48;;;;;;;15.57;8.43;;;;;;;3.65;64.11;101157.78;4363357;32;34479;-68
2022/01/14 00:53:15;;;;;;;16.45;8.18;;;;;;;3.10;66.68;101155.75;4363560;32;32721;-69
2022/01/14 00:55:50;;;;;;;15.40;8.70;;;;;;;3.43;65.56;101153.94;4363610;32;34052;-68
2022/01/14 01:01:04;;;;;;;18.42;8.60;;;;;;;3.72;64.24;101153.44;4363280;32;33994;-68
2022/01/14 01:03:33;;;;;;;17.23;9.55;;;;;;;3.95;63.03;101153.53;4363534;32;33598;-69
2022/01/14 01:06:02;;;;;;;15.43;8.15;;;;;;;3.61;64.00;101143.06;4363610;32;33939;-68
2022/01/14 01:08:31;;;;;;;17.62;8.70;;;;;;;3.90;63.12;101147.88;4363214;32;35011;-68
2022/01/14 01:10:59;;;;;;;17.00;8.07;;;;;;;3.66;63.84;101154.09;4362433;32;33958;-68
2022/01/14 01:13:32;;;;;;;15.30;8.05;;;;;;;3.63;63.91;101151.78;4363450;32;34419;-69
2022/01/14 01:15:59;;;;;;;0.88;0.75;;;;;;;3.61;63.55;101151.94;4363120;32;34831;-68
2022/01/14 01:18:27;;;;;;;0.57;0.57;;;;;;;3.56;63.93;101150.75;4363276;32;33983;-68
2022/01/14 01:20:55;;;;;;;13.68;7.87;;;;;;;4.06;62.67;101152.34;4363658;32;33975;-67
2022/01/14 01:23:23;;;;;;;15.73;8.40;;;;;;;3.86;63.18;101144.66;4363436;32;33482;-67
2022/01/14 01:25:59;;;;;;;14.48;8.13;;;;;;;3.37;64.46;101155.47;4363483;32;34622;-68
2022/01/14 01:28:27;;;;;;;15.50;8.43;;;;;;;3.59;63.75;101151.25;4363183;32;34918;-68
2022/01/14 01:33:22;;;;;;;15.70;8.05;;;;;;;3.52;63.56;101146.72;4363171;32;34311;-69
2022/01/14 01:35:49;;;;;;;1.70;1.33;;;;;;;3.39;63.98;101145.41;4363107;32;33944;-68
2022/01/14 01:38:17;;;;;;;15.68;8.05;;;;;;;3.63;63.27;101144.56;4363062;32;35070;-68
2022/01/14 01:40:47;;;;;;;3.20;2.15;;;;;;;3.52;63.23;101128.81;4363262;32;34662;-69
2022/01/14 01:43:16;;;;;;;16.83;8.50;;;;;;;3.69;62.88;101132.28;4363054;32;33562;-69
2022/01/14 01:45:47;;;;;;;15.70;8.13;;;;;;;3.22;64.16;101124.94;4363374;32;34017;-68
2022/01/14 01:48:15;;;;;;;15.68;8.63;;;;;;;3.18;64.66;101129.78;4363536;32;35074;-68
2022/01/14 01:50:42;;;;;;;18.58;8.65;;;;;;;3.35;64.07;101121.72;4362950;32;35022;-68
2022/01/14 01:53:09;;;;;;;14.82;8.32;;;;;;;3.32;63.98;101122.09;4363483;32;33497;-68
2022/01/14 01:55:37;;;;;;;1.27;1.17;;;;;;;3.10;64.55;101119.06;4363081;32;33898;-68
2022/01/14 01:58:04;;;;;;;17.42;8.77;;;;;;;3.78;62.70;101120.53;4362967;32;34240;-68
2022/01/14 02:00:32;;;;;;;16.80;8.43;;;;;;;2.94;64.98;101110.97;4362855;32;34610;-68
2022/01/14 02:03:02;;;;;;;17.02;8.32;;;;;;;3.29;64.12;101112.53;4362973;32;33616;-69
2022/01/14 02:05:30;;;;;;;15.77;8.50;;;;;;;3.19;64.55;101110.00;4361757;32;33799;-69
2022/01/14 02:07:57;;;;;;;15.75;8.20;;;;;;;3.31;64.16;101107.00;4363017;32;35078;-68
2022/01/14 02:10:26;;;;;;;17.67;8.63;;;;;;;3.14;64.36;101098.13;4362524;32;34632;-68
2022/01/14 02:12:54;;;;;;;15.18;8.38;;;;;;;3.53;63.48;101092.91;4362793;32;34294;-68
2022/01/14 02:23:31;;;;;;;18.00;8.98;;;;;;;2.86;65.27;101075.13;4360411;32;34351;-68
2022/01/14 02:25:59;;;;;;;17.87;9.40;;;;;;;2.65;66.27;101069.38;4362774;32;34703;-68
2022/01/14 02:28:26;;;;;;;17.92;9.15;;;;;;;3.06;64.50;101066.75;4362839;32;35225;-68
2022/01/14 02:30:54;;;;;;;23.00;9.85;;;;;;;3.08;64.53;101073.63;4362846;32;34005;-68
2022/01/14 02:33:21;;;;;;;16.98;8.95;;;;;;;2.61;65.72;101063.53;4363195;32;33552;-68
2022/01/14 02:35:50;;;;;;;18.85;9.98;;;;;;;2.82;65.06;101072.94;4362398;32;34569;-68
2022/01/14 02:38:19;;;;;;;17.83;9.30;;;;;;;2.93;64.31;101059.22;4361610;32;34170;-69
2022/01/14 02:40:47;;;;;;;1.25;1.15;;;;;;;2.70;65.02;101067.06;4362492;32;34024;-68
2022/01/14 02:43:17;;;;;;;16.73;9.20;;;;;;;2.34;66.26;101061.13;4362359;32;33637;-68
2022/01/14 02:45:49;;;;;;;16.48;9.38;;;;;;;2.78;64.67;101066.22;4362565;32;34554;-68
2022/01/14 02:48:18;;;;;;;2.15;1.15;;;;;;;2.92;63.61;101054.88;4362456;32;34229;-68
2022/01/14 02:51:00;;;;;;;17.20;8.93;;;;;;;3.23;62.86;101055.03;4362410;32;34124;-67
2022/01/14 02:56:08;;;;;;;16.17;8.98;;;;;;;3.00;63.93;101049.50;4362170;32;33717;-68
2022/01/14 02:58:38;;;;;;;17.33;8.77;;;;;;;2.50;65.13;101047.75;4362554;32;34958;-67
2022/01/14 03:01:12;;;;;;;4.40;0.80;;;;;;;2.86;64.11;101042.12;4362363;32;34676;-68
2022/01/14 03:03:40;;;;;;;14.07;8.10;;;;;;;2.58;65.78;101045.09;4362342;32;34229;-68
2022/01/14 03:06:08;;;;;;;18.30;8.80;;;;;;;1.94;67.43;101031.34;4362261;32;33988;-68
2022/01/14 03:08:35;;;;;;;18.85;9.23;;;;;;;2.12;66.96;101027.75;4362236;32;35160;-68
2022/01/14 03:11:08;;;;;;;5.78;3.05;;;;;;;1.70;68.75;101032.06;4362301;32;33714;-68
2022/01/14 03:13:37;;;;;;;18.87;9.57;;;;;;;1.94;68.34;101028.66;4362469;32;33520;-68
2022/01/14 03:16:04;;;;;;;3.40;2.15;;;;;;;2.20;67.06;101033.09;4362083;32;34899;-68
2022/01/14 03:18:40;;;;;;;18.12;9.43;;;;;;;2.48;67.28;101020.28;4362140;32;33955;-68
2022/01/14 03:21:12;;;;;;;17.87;9.38;;;;;;;2.12;68.68;101015.19;4361962;32;34626;-68
2022/01/14 03:23:50;;;;;;;1.45;1.20;;;;;;;1.87;70.06;101016.09;4362965;32;34260;-68
2022/01/14 03:26:20;;;;;;;1.80;1.70;;;;;;;2.31;68.55;101011.41;4364117;32;33763;-68
2022/01/14 03:28:48;;;;;;;16.60;10.05;;;;;;;2.62;67.65;101006.25;4364017;32;33827;-68
2022/01/14 03:31:15;;;;;;;20.95;10.35;;;;;;;2.39;68.27;101003.37;4363791;32;34251;-67
2022/01/14 03:33:43;;;;;;;16.80;9.23;;;;;;;2.38;68.18;101003.56;4363940;32;34631;-68
2022/01/14 03:36:11;;;;;;;17.48;10.18;;;;;;;2.61;67.22;101007.28;4363852;32;34047;-68
2022/01/14 03:38:38;;;;;;;19.65;10.20;;;;;;;2.14;68.86;101001.62;4363968;32;35193;-68
2022/01/14 03:41:06;;;;;;;18.85;10.27;;;;;;;2.40;67.85;101004.22;4363675;32;34058;-68
2022/01/14 03:43:35;;;;;;;16.80;9.32;;;;;;;2.22;68.61;100999.81;4364163;32;33529;-69
2022/01/14 03:46:03;;;;;;;0.82;0.82;;;;;;;2.07;69.67;100996.09;4363895;32;34024;-68
2022/01/14 03:48:30;;;;;;;21.67;9.48;;;;;;;2.51;68.68;101001.22;4363769;32;34295;-68
2022/01/14 03:50:58;;;;;;;21.77;10.55;;;;;;;2.18;69.42;100984.25;4364155;32;33942;-68
2022/01/14 03:53:25;;;;;;;20.70;10.57;;;;;;;2.23;69.56;100980.06;4363902;32;33635;-68
2022/01/14 03:55:53;;;;;;;17.75;9.93;;;;;;;2.23;69.20;100977.41;4363655;32;34903;-68
2022/01/14 03:58:38;;;;;;;18.50;9.80;;;;;;;2.46;68.54;100976.75;4363879;32;35193;-68
2022/01/14 04:01:07;;;;;;;19.00;10.10;;;;;;;2.59;68.38;100968.22;4362596;32;34033;-67
2022/01/14 04:03:36;;;;;;;20.95;10.05;;;;;;;2.11;70.47;100965.31;4363510;32;33702;-68
2022/01/14 04:06:04;;;;;;;1.37;1.20;;;;;;;2.02;70.84;100972.50;4363720;32;33783;-68
2022/01/14 04:08:32;;;;;;;19.83;10.05;;;;;;;2.28;70.65;100976.06;4363934;32;34210;-68
2022/01/14 04:11:02;;;;;;;18.95;9.55;;;;;;;2.39;69.83;100975.75;4363706;32;33897;-68
2022/01/14 04:13:46;;;;;;;21.58;10.00;;;;;;;2.28;70.29;100968.03;4363747;32;33557;-68
2022/01/14 04:16:15;;;;;;;19.33;9.68;;;;;;;2.55;69.42;100972.25;4363814;32;33839;-68
2022/01/14 04:18:43;;;;;;;19.05;10.05;;;;;;;2.07;71.50;100969.31;4363748;32;35059;-68
2022/01/14 04:21:10;;;;;;;20.62;10.20;;;;;;;2.34;70.93;100960.19;4363404;32;34370;-69
2022/01/14 04:23:38;;;;;;;0.93;0.93;;;;;;;2.44;70.19;100954.66;4363880;32;33568;-68
2022/01/14 04:26:05;;;;;;;18.85;9.50;;;;;;;2.84;68.60;100948.47;4363657;32;34053;-68
2022/01/14 04:28:36;;;;;;;19.62;9.70;;;;;;;2.26;70.29;100939.56;4363733;32;34136;-68
2022/01/14 04:31:05;;;;;;;22.23;9.68;;;;;;;2.51;70.01;100941.47;4363644;32;33935;-67
2022/01/14 04:33:34;;;;;;;1.17;0.85;;;;;;;2.67;69.18;100936.91;4363210;32;34377;-68
2022/01/14 04:36:03;;;;;;;17.67;9.80;;;;;;;2.83;68.92;100933.41;4362242;32;33907;-68
2022/01/14 04:38:32;;;;;;;2.92;1.12;;;;;;;2.80;69.31;100932.91;4362345;32;34249;-67
2022/01/14 04:40:59;;;;;;;21.33;10.15;;;;;;;2.43;70.77;100927.03;4363366;32;33744;-67
2022/01/14 04:43:29;;;;;;;1.20;1.05;;;;;;;2.23;71.39;100923.84;4363322;32;33520;-68
2022/01/14 04:48:28;;;;;;;0.55;0.55;;;;;;;2.54;71.21;100930.41;4362494;32;34176;-68
2022/01/14 04:50:57;;;;;;;19.35;9.10;;;;;;;2.79;69.91;100925.88;4363445;32;34723;-68
2022/01/14 04:53:25;;;;;;;17.23;9.65;;;;;;;2.66;69.90;100932.56;4362275;32;33371;-68
2022/01/14 04:55:53;;;;;;;20.27;10.18;;;;;;;2.68;69.49;100921.69;4363277;32;33747;-68
2022/01/14 04:58:22;;;;;;;18.85;9.40;;;;;;;2.89;68.44;100907.75;4363310;32;34321;-68
2022/01/14 05:00:50;;;;;;;0.95;0.95;;;;;;;2.54;69.39;100907.13;4363404;32;34726;-69
2022/01/14 05:03:17;;;;;;;18.87;10.07;;;;;;;3.20;67.34;100891.78;4362976;32;33170;-68
2022/01/14 05:05:49;;;;;;;2.78;1.45;;;;;;;3.18;66.99;100901.84;4363408;32;34055;-68
2022/01/14 05:08:24;;;;;;;17.70;9.50;;;;;;;3.05;67.23;100905.06;4363389;32;34281;-70
2022/01/14 05:13:24;;;;;;;21.30;10.77;;;;;;;2.75;68.30;100911.13;4363583;32;33675;-74
2022/01/14 05:15:53;;;;;;;19.08;10.18;;;;;;;2.65;68.46;100905.94;4361922;32;34761;-70
2022/01/14 05:18:22;;;;;;;1.85;1.10;;;;;;;2.61;68.30;100896.56;4363098;32;34176;-69
2022/01/14 05:20:51;;;;;;;20.30;9.98;;;;;;;2.72;68.39;100903.41;4363298;32;34014;-68
2022/01/14 05:23:19;;;;;;;23.33;10.20;;;;;;;2.29;69.24;100897.41;4363144;32;34442;-70
2022/01/14 05:25:46;;;;;;;22.33;9.98;;;;;;;2.44;68.67;100899.25;4363298;32;34046;-70
2022/01/14 05:28:14;;;;;;;1.55;1.40;;;;;;;2.20;69.92;100900.09;4363456;32;34212;-69
2022/01/14 05:30:41;;;;;;;0.80;0.80;;;;;;;2.38;69.39;100902.59;4362862;32;34020;-68
2022/01/14 05:33:09;;;;;;;1.37;0.73;;;;;;;2.57;68.75;100908.63;4363248;32;33249;-69
2022/01/14 05:35:36;;;;;;;21.15;10.07;;;;;;;2.49;68.87;100906.78;4363218;32;34070;-69
2022/01/14 05:38:04;;;;;;;2.55;2.35;;;;;;;2.23;69.98;100914.97;4362916;32;34269;-68
2022/01/14 05:40:31;;;;;;;0.60;0.60;;;;;;;2.59;68.87;100910.16;4363091;32;34691;-68
2022/01/14 05:42:59;;;;;;;20.00;9.73;;;;;;;2.42;69.59;100906.62;4363082;32;33251;-67
2022/01/14 05:45:27;;;;;;;1.33;1.00;;;;;;;1.49;72.24;100905.91;4362144;32;33925;-68
2022/01/14 05:47:54;;;;;;;2.55;1.85;;;;;;;1.91;71.19;100903.22;4361946;32;35151;-69
2022/01/14 05:50:24;;;;;;;19.48;10.48;;;;;;;2.08;70.53;100903.25;4363143;32;33869;-71
2022/01/14 05:52:51;;;;;;;18.52;9.55;;;;;;;2.02;70.74;100907.41;4362807;32;33642;-69
2022/01/14 05:55:21;;;;;;;19.60;10.27;;;;;;;2.43;69.54;100902.09;4361994;32;33705;-67
2022/01/14 05:57:48;;;;;;;20.17;10.13;;;;;;;2.23;69.85;100913.12;4351749;32;35149;-68
2022/01/14 06:00:20;;;;;;;1.33;1.20;;;;;;;2.04;70.83;100910.75;4354214;32;34665;-68
2022/01/14 06:02:51;;;;;;;21.77;9.80;;;;;;;2.38;69.61;100905.28;4354765;32;33125;-68
2022/01/14 06:05:19;;;;;;;20.20;9.75;;;;;;;2.23;70.43;100909.62;4352699;32;34691;-69
2022/01/14 06:07:47;;;;;;;1.23;1.02;;;;;;;2.51;69.12;100907.47;4353372;32;34320;-69
2022/01/14 06:10:14;;;;;;;16.85;9.75;;;;;;;2.62;68.63;100900.94;4353480;32;34792;-69
2022/01/14 06:12:42;;;;;;;1.40;1.30;;;;;;;2.88;67.67;100906.09;4352715;32;34024;-69
2022/01/14 06:15:09;;;;;;;19.10;10.80;;;;;;;2.90;67.42;100900.56;4357516;32;34001;-70
2022/01/14 06:17:37;;;;;;;2.08;1.87;;;;;;;2.97;67.14;100905.06;4360948;32;33906;-80
2022/01/14 06:20:05;;;;;;;19.70;10.20;;;;;;;2.89;67.55;100894.34;4353578;32;34458;-70
2022/01/14 06:22:35;;;;;;;0.93;0.88;;;;;;;2.80;67.70;100890.03;4354761;32;34274;-70
2022/01/14 06:25:04;;;;;;;20.52;10.57;;;;;;;3.14;66.46;100881.72;4353780;32;34458;-70
2022/01/14 06:27:32;;;;;;;1.55;1.30;;;;;;;2.85;67.22;100880.47;4352111;32;34316;-76
2022/01/14 06:30:03;;;;;;;20.10;10.32;;;;;;;2.38;68.78;100877.66;4349589;32;33876;-73
2022/01/14 06:32:30;;;;;;;18.98;10.48;;;;;;;2.33;68.78;100874.63;4352719;32;34114;-70
2022/01/14 06:34:58;;;;;;;1.60;1.48;;;;;;;2.29;68.84;100881.34;4354782;32;33721;-69
2022/01/14 06:37:26;;;;;;;20.98;10.40;;;;;;;2.41;68.84;100890.72;4352114;32;33227;-70
2022/01/14 06:39:54;;;;;;;20.55;10.77;;;;;;;2.31;69.28;100890.03;4354302;32;34121;-69
2022/01/14 06:42:22;;;;;;;2.08;0.88;;;;;;;2.82;66.69;100880.78;4353533;32;34145;-71
2022/01/14 06:44:49;;;;;;;20.55;10.55;;;;;;;2.97;66.67;100883.63;4351611;32;34960;-69
2022/01/14 06:47:17;;;;;;;20.40;9.90;;;;;;;3.12;65.90;100874.88;4351793;32;34209;-69
2022/01/14 06:49:44;;;;;;;20.23;10.65;;;;;;;3.15;65.53;100871.84;4351764;32;34124;-68
2022/01/14 06:52:12;;;;;;;0.73;0.73;;;;;;;2.94;66.11;100873.25;4353317;32;33589;-69
2022/01/14 06:54:39;;;;;;;21.02;10.60;;;;;;;2.93;66.57;100879.59;4353176;32;34877;-69
2022/01/14 06:57:07;;;;;;;0.70;0.70;;;;;;;3.29;65.03;100873.81;4353499;32;34025;-69
2022/01/14 06:59:34;;;;;;;23.15;11.85;;;;;;;2.05;69.52;100875.81;4356338;32;33947;-69
2022/01/14 07:02:03;;;;;;;21.12;11.75;;;;;;;2.33;68.79;100869.28;4342098;32;32571;-69
2022/01/14 07:04:30;;;;;;;20.27;11.82;;;;;;;2.09;69.70;100872.78;4353331;32;33787;-68
2022/01/14 07:06:58;;;;;;;19.33;11.12;;;;;;;2.24;68.92;100874.63;4371236;32;33817;-69
2022/01/14 07:09:25;;;;;;;20.33;10.60;;;;;;;2.04;70.49;100871.44;4377856;32;34821;-69
2022/01/14 07:11:56;;;;;;;18.67;10.90;;;;;;;2.35;69.92;100864.59;4377753;32;33283;-69
2022/01/14 07:14:25;;;;;;;18.20;9.63;;;;;;;2.58;69.48;100865.59;4377739;32;33805;-69
2022/01/14 07:16:52;;;;;;;19.23;10.30;;;;;;;2.64;69.16;100864.09;4377192;32;35074;-68
2022/01/14 07:19:21;;;;;;;20.88;9.38;;;;;;;2.47;70.15;100857.91;4377808;32;34536;-67
2022/01/14 07:21:49;;;;;;;15.25;8.50;;;;;;;2.53;70.50;100859.91;4377330;32;33518;-66
2022/01/14 07:24:16;;;;;;;19.50;9.85;;;;;;;2.90;69.22;100841.59;4377520;32;34056;-68
2022/01/14 07:26:45;;;;;;;0.93;0.93;;;;;;;2.83;69.29;100852.12;4375405;32;34168;-71
2022/01/14 07:29:13;;;;;;;20.80;9.13;;;;;;;3.22;68.32;100846.03;4347213;33;34435;-72
2022/01/14 07:31:40;;;;;;;19.85;9.65;;;;;;;3.21;68.17;100847.84;4347367;32;33748;-73
2022/01/14 07:34:08;;;;;;;2.35;2.15;;;;;;;2.95;69.31;100841.91;4347663;33;33873;-70
2022/01/14 07:36:36;;;;;;;18.20;9.20;;;;;;;3.29;68.12;100842.44;4346895;33;34188;-69
2022/01/14 07:39:05;;;;;;;16.40;8.07;;;;;;;3.30;68.41;100840.59;4347375;33;34116;-70
2022/01/14 07:41:33;;;;;;;19.80;9.43;;;;;;;3.37;68.28;100846.09;4347612;33;33617;-68
2022/01/14 07:44:03;;;;;;;15.13;8.43;;;;;;;3.23;69.10;100835.09;4346136;33;33815;-69
2022/01/14 07:46:30;;;;;;;14.93;7.82;;;;;;;3.27;69.01;100844.47;4345936;33;34975;-68
2022/01/14 07:48:58;;;;;;;12.93;7.25;;;;;;;2.87;70.40;100845.44;4346398;33;33685;-70
2022/01/14 07:51:25;;;;;;;12.07;7.00;;;;;;;3.25;69.69;100856.38;4334068;33;32909;-70
2022/01/14 07:53:53;;;;;;;12.85;7.22;;;;;;;2.92;71.17;100858.34;4347409;33;34623;-69
2022/01/14 07:56:20;;;;;;;14.85;7.37;;;;;;;3.35;70.51;100867.75;4347576;33;34219;-70
2022/01/14 07:58:48;;;;;;;15.25;8.25;;;;;;;4.10;67.61;100858.25;4343591;32;34585;-65
2022/01/14 08:01:16;;;;;;;14.68;7.05;;;;;;;4.21;66.64;100854.31;4345355;32;32768;-65
2022/01/14 08:03:44;;;;;;;13.55;7.32;;;;;;;4.35;65.96;100858.91;4346893;32;34648;-65
2022/01/14 08:06:12;;;;;;;12.52;6.90;;;;;;;4.90;64.37;100859.56;4346732;33;34951;-66
2022/01/14 08:08:39;;;;;;;14.27;7.03;;;;;;;4.92;64.36;100855.69;4345568;33;34729;-66
2022/01/14 08:11:07;;;;;;;15.63;7.82;;;;;;;4.98;63.80;100854.09;4347375;33;33573;-65
2022/01/14 08:13:34;;;;;;;13.73;7.12;;;;;;;5.31;63.18;100859.09;4347382;33;33696;-66
2022/01/14 08:16:02;;;;;;;15.40;7.50;;;;;;;5.26;62.74;100853.44;4347099;33;35070;-66
2022/01/14 08:18:30;;;;;;;13.10;6.75;;;;;;;5.40;62.35;100852.59;4347348;33;34078;-66
2022/01/14 08:20:59;;;;;;;12.02;7.22;;;;;;;5.50;62.40;100852.31;4345749;33;33177;-66
2022/01/14 08:23:26;;;;;;;11.70;6.78;;;;;;;5.56;62.10;100838.09;4347175;33;33864;-66
2022/01/14 08:25:55;;;;;;;13.02;7.05;;;;;;;5.88;60.84;100847.56;4347112;33;33959;-65
2022/01/14 08:28:23;;;;;;;13.35;6.57;;;;;;;5.83;60.84;100841.06;4347121;33;34940;-66
2022/01/14 08:30:51;;;;;;;15.13;7.50;;;;;;;6.09;59.93;100837.84;4345861;33;33347;-65
2022/01/14 08:33:19;;;;;;;13.45;7.28;;;;;;;6.33;59.22;100839.34;4344989;32;33507;-67
2022/01/14 08:35:47;;;;;;;12.55;6.25;;;;;;;6.83;57.18;100840.13;4346320;33;35215;-66
2022/01/14 08:38:14;;;;;;;14.73;7.43;;;;;;;7.05;56.65;100837.34;4346930;33;34517;-67
2022/01/14 08:40:42;;;;;;;13.50;7.78;;;;;;;7.27;55.02;100830.00;4345660;33;33345;-65
2022/01/14 08:43:09;;;;;;;16.77;7.53;;;;;;;7.12;56.43;100838.22;4333392;33;34217;-67
2022/01/14 08:45:37;;;;;;;14.05;6.35;;;;;;;6.95;56.16;100832.28;4346638;33;35644;-67
2022/01/14 08:48:05;;;;;;;12.02;6.68;;;;;;;7.35;55.91;100836.06;4347156;33;34754;-67
2022/01/14 08:50:35;;;;;;;14.60;7.18;;;;;;;7.83;53.95;100824.38;4346546;33;34267;-73
2022/01/14 08:53:04;;;;;;;12.15;6.00;;;;;;;7.98;53.83;100822.31;4333568;33;32946;-66
2022/01/14 08:55:34;;;;;;;11.80;6.28;;;;;;;8.07;53.63;100814.84;4347009;33;35209;-65
2022/01/14 08:58:03;;;;;;;10.40;6.37;;;;;;;8.28;53.23;100807.59;4346588;33;34966;-66
2022/01/14 09:00:30;;;;;;;11.25;5.72;;;;;;;8.17;52.57;100800.94;4345305;33;33600;-66
2022/01/14 09:02:58;;;;;;;12.52;6.68;;;;;;;8.11;53.40;100805.28;4347393;33;33758;-68
2022/01/14 09:05:26;;;;;;;13.15;5.72;;;;;;;8.05;52.73;100799.87;4346168;33;34978;-67
2022/01/14 09:07:54;;;;;;;10.75;5.43;;;;;;;9.36;50.14;100807.22;4346951;33;34200;-66
2022/01/14 09:10:22;;;;;;;11.15;5.28;;;;;;;8.06;52.39;100815.91;4347073;33;33559;-65
2022/01/14 09:12:49;;;;;;;9.98;5.22;;;;;;;7.84;53.81;100809.84;4346783;33;33827;-65
2022/01/14 09:15:17;;;;;;;9.32;4.78;;;;;;;7.82;53.78;100806.50;4347149;33;33775;-66
2022/01/14 09:17:45;;;;;;;8.50;4.75;;;;;;;8.29;53.18;100809.25;4346443;33;33815;-67
2022/01/14 09:20:13;;;;;;;20.48;8.45;;;;;;;9.42;50.71;100807.19;4346508;33;33860;-68
2022/01/14 09:22:47;;;;;;;10.73;5.03;;;;;;;10.19;48.20;100796.28;4347276;33;33707;-70
2022/01/14 09:25:19;;;;;;;8.85;4.50;;;;;;;9.61;49.89;100786.47;4346204;33;34161;-71
2022/01/14 09:27:49;;;;;;;8.85;4.62;;;;;;;9.94;48.60;100792.72;4347140;33;34659;-80
2022/01/14 09:30:17;;;;;;;8.57;4.47;;;;;;;9.39;49.09;100777.78;4346828;32;33147;-75
2022/01/14 09:32:44;;;;;;;8.20;4.00;;;;;;;9.06;50.14;100772.53;4347183;33;33468;-67
2022/01/14 09:35:13;;;;;;;8.82;4.40;;;;;;;9.71;48.73;100769.72;4347317;33;34976;-68
2022/01/14 09:37:44;;;;;;;8.43;4.30;;;;;;;8.77;50.23;100768.47;4345687;33;33623;-69
2022/01/14 09:40:14;;;;;;;15.15;4.47;;;;;;;8.38;52.56;100764.72;4345816;33;33489;-69
2022/01/14 09:42:49;;;;;;;10.00;4.12;;;;;;;8.72;51.59;100760.13;4347242;33;33703;-66
2022/01/14 09:45:20;;;;;;;10.65;4.75;;;;;;;8.49;51.18;100761.44;4345794;33;33848;-67
2022/01/14 09:47:49;;;;;;;7.75;4.37;;;;;;;8.72;51.10;100752.03;4345669;33;33941;-76
2022/01/14 09:50:18;;;;;;;7.43;3.70;;;;;;;7.85;53.47;100756.63;4346217;33;33888;-75
2022/01/14 09:52:47;;;;;;;8.45;4.43;;;;;;;7.56;54.17;100754.09;4346912;33;34758;-71
2022/01/14 09:55:14;;;;;;;8.88;4.30;;;;;;;7.67;54.15;100749.13;4344394;33;35070;-68
2022/01/14 09:57:42;;;;;;;10.55;5.15;;;;;;;7.73;54.01;100751.84;4345254;32;33543;-70
2022/01/14 10:00:10;;;;;;;10.85;4.90;;;;;;;8.58;51.94;100759.34;4346958;33;33641;-70
2022/01/14 10:02:40;;;;;;;7.62;4.28;;;;;;;8.24;52.09;100734.19;4347435;33;34819;-69
2022/01/14 10:05:10;;;;;;;7.15;4.18;;;;;;;8.14;52.53;100741.87;4345976;33;34133;-70
2022/01/14 10:07:37;;;;;;;7.32;3.70;;;;;;;8.15;52.46;100730.03;4345468;33;34137;-69
2022/01/14 10:10:25;;;;;;;8.07;4.28;;;;;;;7.88;52.64;100735.41;4347127;33;33485;-69
2022/01/14 10:12:52;;;;;;;9.95;4.12;;;;;;;8.25;51.80;100725.03;4345955;33;34727;-70
2022/01/14 10:15:20;;;;;;;6.95;3.83;;;;;;;8.32;51.68;100722.31;4347131;33;34143;-70
2022/01/14 10:17:47;;;;;;;8.10;4.30;;;;;;;8.36;51.28;100697.34;4346683;33;34982;-70
2022/01/14 10:20:18;;;;;;;5.37;3.30;;;;;;;8.09;51.83;100693.03;4347033;33;34166;-70
2022/01/14 10:22:47;;;;;;;6.95;3.90;;;;;;;8.61;51.00;100705.63;4347159;33;34495;-70
2022/01/14 10:25:20;;;;;;;8.40;4.15;;;;;;;9.16;48.97;100701.69;4346753;33;34000;-70
2022/01/14 10:27:50;;;;;;;6.37;3.83;;;;;;;8.62;50.11;100701.91;4346641;33;33811;-70
2022/01/14 10:30:17;;;;;;;7.50;3.83;;;;;;;8.07;51.50;100689.69;4346852;33;34113;-69
2022/01/14 10:32:53;;;;;;;7.22;3.83;;;;;;;8.55;50.73;100690.28;4345649;33;34028;-70
2022/01/14 10:35:22;;;;;;;7.72;4.12;;;;;;;8.46;50.87;100678.00;4345378;33;33894;-69
2022/01/14 10:37:50;;;;;;;7.80;4.15;;;;;;;8.24;51.27;100685.50;4345285;33;34002;-71
2022/01/14 10:40:20;;;;;;;7.25;3.75;;;;;;;8.35;51.42;100678.63;4346759;33;34599;-69
2022/01/14 10:42:50;;;;;;;9.48;4.62;;;;;;;7.95;51.55;100676.00;4346631;33;33948;-70
2022/01/14 10:45:32;;;;;;;7.32;4.05;;;;;;;8.58;49.99;100680.91;4345554;33;34219;-69
2022/01/14 10:48:08;;;;;;;8.57;4.37;;;;;;;8.06;51.56;100679.94;4346744;33;33596;-71
2022/01/14 10:50:37;;;;;;;8.23;4.55;;;;;;;8.64;50.37;100674.66;4345363;33;33596;-69
2022/01/14 10:53:25;;;;;;;9.02;4.00;;;;;;;8.25;51.12;100656.59;4346707;33;34857;-69
2022/01/14 10:56:13;;;;;;;9.40;4.37;;;;;;;8.23;51.35;100656.84;4346051;33;33955;-70
2022/01/14 10:58:43;;;;;;;7.68;3.95;;;;;;;8.10;51.47;100654.13;4346248;33;34078;-69
2022/01/14 11:01:15;;;;;;;9.27;4.40;;;;;;;7.58;52.74;100657.50;4346534;33;33537;-70
2022/01/14 11:04:01;;;;;;;7.53;4.03;;;;;;;7.63;53.15;100661.44;4344950;33;33146;-69
2022/01/14 11:06:40;;;;;;;7.75;4.00;;;;;;;7.95;52.30;100654.37;4344844;33;34033;-70
2022/01/14 11:09:18;;;;;;;7.85;4.37;;;;;;;7.73;52.76;100651.88;4346350;33;33981;-71
2022/01/14 11:11:48;;;;;;;10.63;4.28;;;;;;;7.68;52.44;100656.25;4346146;33;33358;-71
2022/01/14 11:14:16;;;;;;;7.47;3.80;;;;;;;7.96;52.08;100647.91;4345241;33;33600;-70
2022/01/14 11:16:44;;;;;;;7.07;3.78;;;;;;;7.38;53.13;100643.13;4345509;33;35073;-69
2022/01/14 11:19:14;;;;;;;8.30;3.95;;;;;;;7.78;52.61;100640.47;4345770;33;33782;-70
2022/01/14 11:24:32;;;;;;;7.50;4.12;;;;;;;7.63;52.54;100653.34;4345503;33;33959;-75
2022/01/14 11:27:18;;;;;;;6.90;4.10;;;;;;;7.55;52.59;100632.75;4344940;33;35105;-73
2022/01/14 11:29:51;;;;;;;7.97;3.70;;;;;;;7.35;53.00;100630.88;4345760;33;33583;-77
2022/01/14 11:32:19;;;;;;;9.77;4.60;;;;;;;7.98;51.94;100619.63;4345042;33;33433;-70
2022/01/14 11:34:47;;;;;;;10.27;4.93;;;;;;;7.56;52.89;100635.25;4344847;33;33417;-70
2022/01/14 11:37:28;;;;;;;7.45;4.15;;;;;;;7.51;53.11;100616.13;4344429;33;34166;-76
2022/01/14 11:40:08;;;;;;;8.20;4.32;;;;;;;7.62;52.96;100621.97;4357332;32;34136;-75
2022/01/14 11:42:40;;;;;;;10.48;4.45;;;;;;;7.97;51.77;100611.75;4359710;32;34372;-77
2022/01/14 11:45:09;;;;;;;8.55;4.68;;;;;;;8.38;51.02;100611.44;4349158;32;34891;-73
2022/01/14 11:47:39;;;;;;;8.70;4.35;;;;;;;8.32;51.27;100597.94;4361320;32;34169;-69
2022/01/14 11:50:30;;;;;;;10.98;4.72;;;;;;;8.62;50.82;100596.41;4362978;32;34648;-68
2022/01/14 11:52:59;;;;;;;7.78;4.57;;;;;;;8.50;51.13;100592.69;4362855;32;34260;-69
2022/01/14 11:55:34;;;;;;;8.07;4.35;;;;;;;8.88;50.24;100596.50;4349864;32;32309;-71
2022/01/14 11:58:15;;;;;;;9.05;4.72;;;;;;;7.84;52.24;100591.00;4361232;32;33769;-67
2022/01/14 12:00:43;;;;;;;7.30;4.22;;;;;;;8.31;50.91;100583.56;4363024;32;34748;-67
2022/01/14 12:03:11;;;;;;;7.90;4.65;;;;;;;8.34;51.01;100585.06;4362749;32;34174;-68
2022/01/14 12:05:53;;;;;;;8.32;4.87;;;;;;;8.66;50.56;100596.81;4362796;32;33716;-68
2022/01/14 12:08:31;;;;;;;9.98;4.65;;;;;;;7.88;52.68;100592.22;4361015;32;34830;-68